Time;durP1;ratioP1;P1;durP2;ratioP2;P2;SDS_P1;SDS_P2;PMS_P1;PMS_P2;Temp;Humidity;BMP_temperature;BMP_pressure;BME280_temperature;BME280_humidity;BME280_pressure;Samples;Min_cycle;Max_cycle;Signal;HPM_P1;HPM_P2
2023/06/30 00:01:58;;;;;;;;;7.00;6.00;25.40;51.10;;;;;;111524;1238;48506;-62
2023/06/30 00:04:26;;;;;;;;;8.25;7.50;25.40;51.00;;;;;;111510;1238;49272;-63
2023/06/30 00:06:56;;;;;;;;;8.00;7.00;25.40;51.10;;;;;;111490;1243;53485;-62
2023/06/30 00:09:23;;;;;;;;;8.25;7.75;25.40;51.10;;;;;;111536;1242;44320;-62
2023/06/30 00:11:52;;;;;;;;;8.00;7.33;25.30;51.50;;;;;;111393;1242;49736;-62
2023/06/30 00:14:20;;;;;;;;;8.00;7.50;25.30;51.00;;;;;;111388;1241;49378;-63
2023/06/30 00:16:49;;;;;;;;;7.75;7.00;25.30;51.00;;;;;;111566;1237;54735;-62
2023/06/30 00:19:18;;;;;;;;;7.00;6.75;25.30;51.10;;;;;;111408;1237;44252;-62
2023/06/30 00:21:45;;;;;;;;;8.00;7.00;25.30;51.10;;;;;;111601;1244;48437;-63
2023/06/30 00:24:13;;;;;;;;;7.50;7.00;25.30;51.30;;;;;;111440;1242;48636;-61
2023/06/30 00:26:40;;;;;;;;;8.75;8.75;25.20;51.00;;;;;;111587;1242;55322;-62
2023/06/30 00:29:07;;;;;;;;;9.00;8.00;25.20;51.00;;;;;;111481;1237;45221;-62
2023/06/30 00:31:34;;;;;;;;;8.67;8.67;25.30;51.10;;;;;;111405;1243;48590;-63
2023/06/30 00:34:01;;;;;;;;;7.00;6.00;25.30;51.10;;;;;;111493;1242;49899;-62
2023/06/30 00:36:29;;;;;;;;;8.00;7.00;25.20;51.10;;;;;;111492;1238;53446;-66
2023/06/30 00:38:55;;;;;;;;;10.00;9.00;25.20;51.10;;;;;;111424;1242;45798;-63
2023/06/30 00:41:23;;;;;;;;;8.00;7.50;25.20;51.10;;;;;;111408;1240;48968;-63
2023/06/30 00:43:50;;;;;;;;;7.75;6.75;25.20;51.30;;;;;;111430;1243;49723;-61
2023/06/30 00:46:17;;;;;;;;;8.00;7.25;25.20;51.30;;;;;;111474;1238;54353;-62
2023/06/30 00:48:45;;;;;;;;;7.67;6.67;25.20;51.10;;;;;;111464;1237;44845;-61
2023/06/30 00:51:12;;;;;;;;;8.25;7.25;25.20;51.10;;;;;;111557;1242;48717;-62
2023/06/30 00:53:40;;;;;;;;;9.00;8.25;25.20;51.10;;;;;;111495;1238;49107;-62
2023/06/30 00:56:07;;;;;;;;;8.00;7.00;25.20;51.10;;;;;;111486;1238;53884;-61
2023/06/30 00:58:33;;;;;;;;;8.00;7.00;25.20;51.20;;;;;;111508;1238;44381;-62
2023/06/30 01:01:09;;;;;;;;;8.00;8.00;25.20;51.20;;;;;;111592;1243;48874;-66
2023/06/30 01:03:42;;;;;;;;;8.00;7.00;25.20;51.20;;;;;;111395;1241;49638;-60
2023/06/30 01:06:17;;;;;;;;;7.00;7.00;25.20;51.20;;;;;;111528;1237;53392;-61
2023/06/30 01:08:56;;;;;;;;;9.00;8.00;25.10;51.10;;;;;;111597;1238;45407;-63
2023/06/30 01:11:24;;;;;;;;;7.25;7.25;25.20;51.30;;;;;;111475;1242;49528;-62
2023/06/30 01:13:53;;;;;;;;;9.00;8.00;25.20;51.10;;;;;;111270;1243;49190;-62
2023/06/30 01:16:21;;;;;;;;;10.00;8.33;25.20;51.40;;;;;;111455;1243;54129;-62
2023/06/30 01:18:52;;;;;;;;;8.00;7.25;25.20;51.20;;;;;;111462;1243;44464;-63
2023/06/30 01:21:23;;;;;;;;;8.00;7.00;25.20;51.20;;;;;;111264;1243;50517;-62
2023/06/30 01:23:58;;;;;;;;;7.00;6.50;25.10;51.10;;;;;;111344;1243;49902;-62
2023/06/30 01:26:25;;;;;;;;;8.75;7.00;25.10;51.10;;;;;;111515;1243;53491;-64
2023/06/30 01:28:53;;;;;;;;;8.00;8.00;25.10;51.20;;;;;;111244;1241;45373;-62
2023/06/30 01:31:20;;;;;;;;;8.00;7.75;25.10;51.10;;;;;;111440;1238;49569;-62
2023/06/30 01:33:48;;;;;;;;;7.00;7.00;25.10;51.10;;;;;;111497;1242;49367;-62
2023/06/30 01:36:15;;;;;;;;;7.75;7.25;25.10;51.70;;;;;;111391;1237;54531;-65
2023/06/30 01:38:43;;;;;;;;;8.00;7.00;25.10;51.40;;;;;;111511;1238;44604;-63
2023/06/30 01:41:11;;;;;;;;;7.75;6.75;25.10;51.20;;;;;;111445;1238;49122;-62
2023/06/30 01:43:38;;;;;;;;;8.25;7.50;25.10;51.20;;;;;;111487;1237;48447;-63
2023/06/30 01:46:06;;;;;;;;;9.25;7.25;25.00;51.10;;;;;;111486;1238;54118;-63
2023/06/30 01:48:33;;;;;;;;;7.25;7.00;25.00;51.20;;;;;;111510;1238;45017;-63
2023/06/30 01:51:01;;;;;;;;;9.00;8.00;25.00;51.10;;;;;;111560;1242;48616;-64
2023/06/30 01:53:28;;;;;;;;;7.00;6.00;25.10;51.20;;;;;;111322;1243;49129;-63
2023/06/30 01:55:55;;;;;;;;;7.75;7.75;25.00;51.10;;;;;;111404;1237;53530;-62
2023/06/30 01:58:22;;;;;;;;;8.00;7.00;25.00;51.10;;;;;;111622;1237;44783;-63
2023/06/30 02:00:49;;;;;;;;;8.00;7.00;25.00;51.30;;;;;;111547;1237;48707;-67
2023/06/30 02:03:16;;;;;;;;;7.50;7.00;25.00;51.30;;;;;;111666;1242;49428;-63
2023/06/30 02:05:43;;;;;;;;;8.00;7.00;25.00;51.10;;;;;;111517;1238;53884;-63
2023/06/30 02:08:10;;;;;;;;;7.75;7.00;25.00;51.10;;;;;;111422;1243;44979;-63
2023/06/30 02:10:37;;;;;;;;;9.00;8.25;25.00;51.10;;;;;;111449;1242;49243;-62
2023/06/30 02:13:04;;;;;;;;;8.25;7.25;25.00;51.10;;;;;;111481;1243;48613;-63
2023/06/30 02:15:31;;;;;;;;;8.00;7.75;25.00;51.20;;;;;;111532;1237;53634;-66
2023/06/30 02:17:57;;;;;;;;;7.75;6.75;24.90;51.10;;;;;;111324;1238;44983;-63
2023/06/30 02:20:24;;;;;;;;;8.00;7.00;24.90;51.10;;;;;;111493;1243;49213;-63
2023/06/30 02:22:51;;;;;;;;;8.00;7.00;24.90;51.10;;;;;;111392;1238;49214;-60
2023/06/30 02:25:18;;;;;;;;;7.00;6.50;24.90;51.20;;;;;;111426;1237;54267;-64
2023/06/30 02:27:45;;;;;;;;;7.00;6.50;24.90;51.20;;;;;;111514;1238;45070;-64
2023/06/30 02:30:13;;;;;;;;;8.25;7.75;24.90;51.20;;;;;;111463;1237;48558;-63
2023/06/30 02:32:40;;;;;;;;;7.75;6.75;24.90;51.20;;;;;;111542;1242;48668;-62
2023/06/30 02:35:09;;;;;;;;;7.00;6.25;24.90;51.20;;;;;;111515;1242;55190;-65
2023/06/30 02:37:36;;;;;;;;;8.00;7.75;24.90;51.20;;;;;;111513;1237;45078;-62
2023/06/30 02:40:04;;;;;;;;;7.67;6.33;24.90;51.20;;;;;;111327;1243;50111;-63
2023/06/30 02:42:31;;;;;;;;;9.00;8.00;24.90;51.20;;;;;;111466;1237;48774;-63
2023/06/30 02:44:58;;;;;;;;;7.00;6.00;24.90;51.20;;;;;;111523;1243;53714;-63
2023/06/30 02:47:25;;;;;;;;;7.25;7.00;24.90;51.40;;;;;;111527;1242;44632;-64
2023/06/30 02:49:52;;;;;;;;;8.00;7.00;24.80;51.20;;;;;;111492;1238;49228;-63
2023/06/30 02:52:19;;;;;;;;;7.00;6.00;24.80;51.20;;;;;;111561;1238;48670;-64
2023/06/30 02:54:46;;;;;;;;;8.75;7.50;24.80;51.30;;;;;;111493;1237;53694;-65
2023/06/30 02:57:13;;;;;;;;;8.00;6.00;24.90;51.20;;;;;;111583;1238;45216;-63
2023/06/30 02:59:40;;;;;;;;;6.00;5.75;24.90;51.20;;;;;;111502;1242;49312;-63
2023/06/30 03:02:07;;;;;;;;;8.00;6.25;24.80;51.10;;;;;;111393;1237;49250;-63
2023/06/30 03:04:34;;;;;;;;;8.00;7.00;24.90;51.20;;;;;;111564;1238;54544;-63
2023/06/30 03:07:01;;;;;;;;;8.75;7.75;24.80;51.10;;;;;;111478;1243;45145;-63
2023/06/30 03:09:28;;;;;;;;;8.00;7.00;24.80;51.20;;;;;;111485;1238;49122;-64
2023/06/30 03:11:55;;;;;;;;;7.33;6.00;24.80;51.10;;;;;;111529;1238;49077;-63
2023/06/30 03:14:22;;;;;;;;;8.00;7.00;24.80;51.20;;;;;;111493;1243;53864;-61
2023/06/30 03:16:49;;;;;;;;;8.50;8.00;24.80;51.20;;;;;;111519;1237;44905;-62
2023/06/30 03:19:16;;;;;;;;;7.00;6.00;24.80;51.10;;;;;;111531;1243;48868;-61
2023/06/30 03:21:43;;;;;;;;;8.00;7.25;24.80;51.30;;;;;;111521;1242;49877;-63
2023/06/30 03:24:10;;;;;;;;;8.00;7.00;24.80;51.10;;;;;;111535;1242;53717;-63
2023/06/30 03:26:37;;;;;;;;;8.00;7.75;24.80;51.20;;;;;;111488;1237;44888;-63
2023/06/30 03:29:04;;;;;;;;;8.00;7.00;24.80;51.10;;;;;;111452;1240;49099;-62
2023/06/30 03:31:31;;;;;;;;;7.00;7.00;24.80;51.10;;;;;;111338;1243;48693;-63
2023/06/30 03:33:58;;;;;;;;;7.75;6.75;24.80;51.00;;;;;;111407;1238;54073;-64
2023/06/30 03:36:25;;;;;;;;;8.00;7.00;24.80;51.20;;;;;;111444;1242;44603;-65
2023/06/30 03:38:52;;;;;;;;;7.75;7.00;24.80;51.10;;;;;;111459;1237;49071;-71
2023/06/30 03:41:19;;;;;;;;;7.50;7.00;24.80;51.50;;;;;;111429;1242;49812;-64
2023/06/30 03:43:46;;;;;;;;;7.75;7.00;24.80;51.20;;;;;;111414;1243;54019;-63
2023/06/30 03:46:15;;;;;;;;;11.00;9.75;24.80;51.60;;;;;;111310;1237;44801;-78
2023/06/30 03:48:43;;;;;;;;;10.67;9.00;24.70;51.50;;;;;;111576;1237;49394;-81
2023/06/30 03:51:10;;;;;;;;;10.00;9.50;24.80;48.70;;;;;;111625;1239;48799;-80
2023/06/30 03:53:37;;;;;;;;;10.50;10.00;24.70;47.40;;;;;;111592;1243;53191;-74
2023/06/30 03:56:04;;;;;;;;;10.67;9.33;24.70;47.10;;;;;;111924;1241;44301;-74
2023/06/30 03:58:31;;;;;;;;;12.00;12.00;24.60;47.40;;;;;;111586;1237;49093;-75
2023/06/30 04:00:58;;;;;;;;;11.00;10.00;24.60;47.40;;;;;;111395;1243;49009;-70
2023/06/30 04:03:25;;;;;;;;;11.67;11.00;24.50;47.40;;;;;;111568;1238;54175;-79
2023/06/30 04:05:53;;;;;;;;;10.00;9.50;24.50;47.30;;;;;;111874;1237;44149;-72
2023/06/30 04:08:20;;;;;;;;;9.00;8.00;24.50;47.10;;;;;;111426;1244;49477;-74
2023/06/30 04:10:48;;;;;;;;;11.75;10.75;24.50;46.80;;;;;;111640;1239;49250;-66
2023/06/30 04:13:15;;;;;;;;;10.25;10.00;24.50;46.20;;;;;;111638;1243;54169;-69
2023/06/30 04:15:41;;;;;;;;;10.75;10.00;24.40;46.20;;;;;;111921;1238;44889;-70
2023/06/30 04:18:09;;;;;;;;;11.00;9.00;24.30;46.30;;;;;;111718;1243;50290;-67
2023/06/30 04:20:36;;;;;;;;;10.75;10.00;24.20;46.80;;;;;;111580;1238;49375;-69
2023/06/30 04:23:03;;;;;;;;;14.00;12.00;24.10;47.00;;;;;;111528;1242;54162;-69
2023/06/30 04:25:30;;;;;;;;;12.00;11.50;24.00;47.30;;;;;;111894;1237;44702;-69
2023/06/30 04:27:57;;;;;;;;;11.00;10.25;23.90;47.40;;;;;;111505;1237;49430;-66
2023/06/30 04:30:24;;;;;;;;;11.00;10.33;23.80;47.40;;;;;;111560;1242;50558;-71
2023/06/30 04:32:51;;;;;;;;;10.50;9.75;23.80;47.80;;;;;;111557;1243;54614;-69
2023/06/30 04:35:18;;;;;;;;;12.00;11.00;23.60;48.20;;;;;;111940;1237;44550;-71
2023/06/30 04:37:45;;;;;;;;;12.33;11.00;23.50;48.60;;;;;;111285;1238;48895;-71
2023/06/30 04:40:12;;;;;;;;;11.75;9.75;23.40;49.00;;;;;;111506;1237;49576;-70
2023/06/30 04:42:39;;;;;;;;;12.50;11.75;23.30;49.90;;;;;;111412;1240;54348;-73
2023/06/30 04:45:06;;;;;;;;;12.75;11.75;23.30;49.60;;;;;;111866;1241;45304;-72
2023/06/30 04:47:33;;;;;;;;;12.00;11.25;23.20;49.70;;;;;;111601;1237;49276;-72
2023/06/30 04:50:01;;;;;;;;;10.75;9.75;23.20;50.00;;;;;;111629;1242;49987;-70
2023/06/30 04:52:28;;;;;;;;;12.00;11.50;23.20;50.00;;;;;;111435;1242;53564;-68
2023/06/30 04:54:56;;;;;;;;;12.00;11.75;23.20;50.50;;;;;;111847;1238;45633;-66
2023/06/30 04:57:23;;;;;;;;;12.75;12.50;23.10;49.70;;;;;;111578;1238;49608;-73
2023/06/30 04:59:54;;;;;;;;;12.00;11.25;23.10;49.60;;;;;;111444;1243;49735;-67
2023/06/30 05:02:21;;;;;;;;;14.00;12.00;23.10;49.60;;;;;;111563;1242;53103;-70
2023/06/30 05:04:49;;;;;;;;;13.00;12.50;23.00;49.70;;;;;;111718;1238;44410;-70
2023/06/30 05:07:16;;;;;;;;;12.75;11.00;23.00;49.70;;;;;;111569;1239;49615;-70
2023/06/30 05:09:43;;;;;;;;;12.00;11.25;22.90;49.30;;;;;;111494;1237;49660;-72
2023/06/30 05:12:10;;;;;;;;;13.67;12.33;22.80;49.50;;;;;;111364;1243;54124;-68
2023/06/30 05:14:37;;;;;;;;;12.67;12.00;22.80;49.60;;;;;;111760;1238;44206;-69
2023/06/30 05:17:04;;;;;;;;;11.00;9.67;22.80;49.80;;;;;;111580;1237;49380;-68
2023/06/30 05:19:31;;;;;;;;;12.00;10.50;22.80;49.90;;;;;;111494;1241;49197;-69
2023/06/30 05:21:58;;;;;;;;;11.00;10.00;22.80;49.90;;;;;;111627;1242;54134;-68
2023/06/30 05:24:25;;;;;;;;;11.00;10.50;22.80;49.90;;;;;;111875;1243;44949;-69
2023/06/30 05:26:53;;;;;;;;;11.75;11.00;22.80;50.00;;;;;;111605;1242;49975;-68
2023/06/30 05:29:20;;;;;;;;;11.25;10.75;22.90;50.10;;;;;;111586;1238;49000;-71
2023/06/30 05:31:47;;;;;;;;;10.50;10.00;22.90;50.40;;;;;;111502;1244;53833;-67
2023/06/30 05:34:15;;;;;;;;;13.00;12.00;22.90;50.30;;;;;;111693;1238;44472;-68
2023/06/30 05:36:45;;;;;;;;;14.00;12.00;23.00;50.50;;;;;;111497;1240;49624;-68
2023/06/30 05:39:13;;;;;;;;;11.75;11.50;23.00;50.40;;;;;;111553;1237;50422;-68
2023/06/30 05:41:41;;;;;;;;;11.50;11.00;23.10;50.70;;;;;;111607;1243;53407;-68
2023/06/30 05:44:09;;;;;;;;;12.75;12.00;23.10;50.70;;;;;;111619;1238;44529;-68
2023/06/30 05:46:39;;;;;;;;;13.00;12.33;23.10;50.60;;;;;;111731;1238;49927;-68
2023/06/30 05:49:06;;;;;;;;;10.75;10.75;23.20;50.70;;;;;;111619;1242;48873;-68
2023/06/30 05:51:33;;;;;;;;;12.75;11.75;23.20;50.70;;;;;;111620;1242;53279;-68
2023/06/30 05:54:04;;;;;;;;;12.75;11.75;23.30;50.70;;;;;;111529;1238;44058;-68
2023/06/30 05:56:31;;;;;;;;;11.50;10.75;23.30;50.70;;;;;;111640;1241;49386;-67
2023/06/30 05:58:58;;;;;;;;;11.33;10.33;23.30;50.80;;;;;;111609;1237;49419;-68
2023/06/30 06:01:25;;;;;;;;;11.00;11.00;23.30;50.80;;;;;;111396;1239;53304;-68
2023/06/30 06:03:52;;;;;;;;;12.75;11.00;23.40;51.00;;;;;;111583;1243;44161;-68
2023/06/30 06:06:21;;;;;;;;;12.50;11.50;23.40;50.80;;;;;;111907;1242;48925;-68
2023/06/30 06:08:48;;;;;;;;;12.25;11.50;23.40;50.80;;;;;;111643;1237;50065;-68
2023/06/30 06:11:15;;;;;;;;;12.00;11.00;23.50;50.90;;;;;;111598;1239;54584;-67
2023/06/30 06:13:42;;;;;;;;;11.00;11.00;23.50;51.00;;;;;;111526;1238;44152;-68
2023/06/30 06:16:09;;;;;;;;;13.00;12.50;23.60;50.90;;;;;;111867;1242;48618;-67
2023/06/30 06:18:36;;;;;;;;;13.50;11.75;23.60;50.80;;;;;;111508;1239;49676;-67
2023/06/30 06:21:04;;;;;;;;;13.00;12.00;23.60;51.00;;;;;;111377;1243;53827;-69
2023/06/30 06:23:31;;;;;;;;;14.00;13.00;23.70;50.90;;;;;;111555;1241;45853;-68
2023/06/30 06:25:58;;;;;;;;;11.75;10.75;23.70;50.90;;;;;;111871;1237;49193;-68
2023/06/30 06:28:25;;;;;;;;;12.00;11.00;23.70;51.10;;;;;;111462;1239;49195;-68
2023/06/30 06:30:52;;;;;;;;;14.00;12.50;23.80;51.10;;;;;;111575;1243;53687;-67
2023/06/30 06:33:19;;;;;;;;;13.00;11.50;23.80;51.20;;;;;;111599;1238;45452;-67
2023/06/30 06:35:48;;;;;;;;;12.00;11.00;23.80;50.90;;;;;;111711;1240;49211;-69
2023/06/30 06:38:17;;;;;;;;;12.00;10.00;23.90;51.10;;;;;;111616;1243;49422;-68
2023/06/30 06:40:47;;;;;;;;;12.33;12.00;23.90;51.00;;;;;;111644;1237;54671;-68
2023/06/30 06:43:14;;;;;;;;;11.50;10.50;24.00;51.00;;;;;;111365;1240;45130;-68
2023/06/30 06:45:41;;;;;;;;;13.00;11.00;24.00;51.00;;;;;;111863;1237;49073;-68
2023/06/30 06:48:23;;;;;;;;;13.00;12.25;24.00;50.90;;;;;;111553;1243;49448;-67
2023/06/30 06:50:54;;;;;;;;;11.00;10.00;24.10;51.00;;;;;;111565;1237;53746;-67
2023/06/30 06:53:25;;;;;;;;;11.67;11.00;24.10;51.10;;;;;;111335;1244;44752;-68
2023/06/30 06:55:53;;;;;;;;;12.00;9.75;24.20;50.90;;;;;;111793;1242;49642;-68
2023/06/30 06:58:20;;;;;;;;;11.75;10.75;24.20;50.90;;;;;;111553;1242;49751;-68
2023/06/30 07:00:49;;;;;;;;;10.25;10.00;24.20;50.80;;;;;;111581;1242;53505;-68
2023/06/30 07:03:16;;;;;;;;;13.33;12.00;24.30;50.90;;;;;;111403;1240;44577;-69
2023/06/30 07:05:47;;;;;;;;;11.50;10.75;24.40;50.90;;;;;;111887;1240;49405;-68
2023/06/30 07:08:18;;;;;;;;;14.00;12.00;24.40;51.00;;;;;;111606;1242;49910;-68
2023/06/30 07:10:47;;;;;;;;;11.33;11.00;24.40;50.90;;;;;;111467;1241;53232;-68
2023/06/30 07:13:16;;;;;;;;;10.00;9.33;24.40;50.90;;;;;;111511;1237;44939;-68
2023/06/30 07:15:45;;;;;;;;;11.00;10.25;24.50;51.00;;;;;;111847;1237;49460;-67
2023/06/30 07:18:12;;;;;;;;;12.67;11.00;24.50;50.90;;;;;;111610;1238;48961;-68
2023/06/30 07:20:38;;;;;;;;;11.00;10.75;24.60;51.10;;;;;;111587;1238;54060;-67
2023/06/30 07:23:05;;;;;;;;;12.50;11.00;24.60;50.90;;;;;;111548;1238;44681;-67
2023/06/30 07:25:33;;;;;;;;;14.00;11.33;24.70;50.90;;;;;;111847;1242;49362;-68
2023/06/30 07:28:00;;;;;;;;;14.00;12.00;24.70;50.90;;;;;;111523;1242;49626;-68
2023/06/30 07:30:27;;;;;;;;;12.67;12.00;24.70;50.50;;;;;;111510;1242;54936;-68
2023/06/30 07:32:55;;;;;;;;;12.75;12.00;24.80;50.60;;;;;;111655;1239;44859;-67
2023/06/30 07:35:23;;;;;;;;;12.00;11.00;24.80;50.60;;;;;;111796;1237;48972;-68
2023/06/30 07:37:50;;;;;;;;;11.75;10.75;24.90;50.70;;;;;;111574;1237;49735;-68
2023/06/30 07:40:18;;;;;;;;;12.75;11.75;24.90;50.60;;;;;;111604;1242;53452;-67
2023/06/30 07:42:45;;;;;;;;;13.00;11.00;24.90;50.40;;;;;;111527;1237;44768;-68
2023/06/30 07:45:14;;;;;;;;;11.00;10.25;25.00;50.50;;;;;;111819;1242;49550;-67
2023/06/30 07:47:42;;;;;;;;;11.75;11.00;25.00;50.40;;;;;;111662;1237;49376;-67
2023/06/30 07:50:12;;;;;;;;;12.00;11.67;25.10;50.50;;;;;;111467;1243;53889;-67
2023/06/30 07:52:48;;;;;;;;;13.25;11.75;25.20;50.40;;;;;;111498;1240;45344;-68
2023/06/30 07:55:18;;;;;;;;;11.00;10.75;25.20;50.30;;;;;;111802;1238;49976;-67
2023/06/30 07:57:46;;;;;;;;;11.25;10.75;25.20;50.40;;;;;;111577;1243;48930;-68
2023/06/30 08:00:18;;;;;;;;;12.00;11.33;25.30;50.20;;;;;;111462;1237;54101;-67
2023/06/30 08:02:46;;;;;;;;;14.00;12.33;25.30;50.10;;;;;;111530;1237;44385;-68
2023/06/30 08:05:13;;;;;;;;;12.00;11.00;25.40;49.90;;;;;;111771;1237;49791;-67
2023/06/30 08:07:40;;;;;;;;;13.00;12.00;25.40;50.20;;;;;;110603;1238;1240096;-67
2023/06/30 08:10:07;;;;;;;;;12.00;11.00;25.40;50.40;;;;;;111534;1242;54672;-66
2023/06/30 08:12:34;;;;;;;;;10.67;9.67;25.50;50.50;;;;;;111649;1237;44871;-66
2023/06/30 08:15:01;;;;;;;;;11.00;10.25;25.50;50.30;;;;;;111812;1238;50444;-66
2023/06/30 08:17:28;;;;;;;;;11.00;10.50;25.50;50.20;;;;;;111518;1242;49193;-67
2023/06/30 08:19:55;;;;;;;;;11.67;9.67;25.60;50.40;;;;;;111563;1242;53716;-69
2023/06/30 08:22:22;;;;;;;;;14.67;13.00;25.60;50.30;;;;;;111583;1242;44222;-66
2023/06/30 08:24:49;;;;;;;;;12.00;10.25;25.70;50.20;;;;;;111836;1238;49053;-66
2023/06/30 08:27:16;;;;;;;;;13.75;13.00;25.70;50.20;;;;;;111611;1237;49599;-67
2023/06/30 08:29:44;;;;;;;;;12.75;12.00;25.70;49.90;;;;;;111636;1239;53676;-67
2023/06/30 08:32:11;;;;;;;;;13.25;13.00;25.80;50.40;;;;;;111640;1242;45137;-66
2023/06/30 08:34:38;;;;;;;;;12.00;12.00;25.80;49.90;;;;;;111843;1242;49454;-67
2023/06/30 08:37:05;;;;;;;;;13.00;12.00;25.80;49.90;;;;;;111519;1238;50324;-66
2023/06/30 08:39:32;;;;;;;;;11.50;11.00;25.90;49.60;;;;;;111554;1243;53197;-68
2023/06/30 08:42:00;;;;;;;;;13.00;12.00;25.90;49.90;;;;;;111592;1238;44688;-67
2023/06/30 08:44:27;;;;;;;;;14.00;12.00;25.90;49.70;;;;;;111671;1240;52234;-67
2023/06/30 08:46:56;;;;;;;;;13.00;12.25;25.90;50.00;;;;;;111514;1243;49254;-67
2023/06/30 08:49:24;;;;;;;;;13.00;11.75;25.90;50.00;;;;;;111565;1237;53868;-67
2023/06/30 08:51:56;;;;;;;;;11.75;11.25;26.00;50.10;;;;;;111567;1239;44419;-66
2023/06/30 08:54:24;;;;;;;;;14.25;11.50;26.00;50.30;;;;;;111886;1237;49950;-67
2023/06/30 08:56:53;;;;;;;;;11.00;10.00;26.10;50.20;;;;;;111566;1237;50316;-67
2023/06/30 08:59:20;;;;;;;;;10.25;9.50;26.10;49.90;;;;;;111595;1242;53487;-68
2023/06/30 09:01:48;;;;;;;;;12.67;12.33;26.10;50.10;;;;;;111582;1242;44455;-67
2023/06/30 09:04:15;;;;;;;;;12.67;11.33;26.10;50.50;;;;;;111554;1243;49137;-73
2023/06/30 09:06:49;;;;;;;;;11.00;10.75;26.10;50.70;;;;;;111405;1244;48948;-70
2023/06/30 09:09:25;;;;;;;;;13.00;11.00;26.20;50.40;;;;;;111343;1240;53619;-72
2023/06/30 09:11:53;;;;;;;;;11.75;11.00;26.20;50.30;;;;;;111591;1238;44697;-71
2023/06/30 09:14:22;;;;;;;;;13.33;11.67;26.30;50.30;;;;;;111810;1243;48899;-74
2023/06/30 09:16:49;;;;;;;;;13.00;12.00;26.30;50.30;;;;;;111676;1242;49403;-71
2023/06/30 09:19:16;;;;;;;;;12.00;11.00;26.30;50.50;;;;;;111582;1243;53410;-72
2023/06/30 09:21:43;;;;;;;;;13.00;12.00;26.40;50.40;;;;;;111585;1237;45284;-71
2023/06/30 09:24:10;;;;;;;;;12.00;11.00;26.40;50.30;;;;;;111483;1239;49516;-72
2023/06/30 09:26:37;;;;;;;;;14.50;13.00;26.40;50.40;;;;;;111779;1238;50436;-71
2023/06/30 09:29:08;;;;;;;;;12.75;11.75;26.50;50.50;;;;;;111540;1237;53713;-72
2023/06/30 09:31:36;;;;;;;;;12.00;11.67;26.50;50.20;;;;;;111506;1242;45995;-73
2023/06/30 09:34:11;;;;;;;;;14.00;13.33;26.50;50.90;;;;;;111725;1238;48811;-67
2023/06/30 09:36:57;;;;;;;;;12.00;11.67;26.50;50.90;;;;;;111930;1238;49247;-66
2023/06/30 09:39:24;;;;;;;;;13.00;12.00;26.50;51.40;;;;;;111555;1239;53982;-65
2023/06/30 09:41:52;;;;;;;;;14.00;12.00;26.60;50.90;;;;;;111474;1243;44975;-64
2023/06/30 09:44:22;;;;;;;;;11.75;11.00;26.60;50.90;;;;;;111796;1237;50398;-65
2023/06/30 09:46:51;;;;;;;;;12.75;11.25;26.70;50.80;;;;;;111429;1243;50078;-64
2023/06/30 09:49:32;;;;;;;;;13.00;11.00;26.70;50.80;;;;;;111616;1243;54442;-66
2023/06/30 09:52:01;;;;;;;;;14.00;13.00;26.70;50.70;;;;;;111444;1242;44835;-70
2023/06/30 09:54:29;;;;;;;;;13.00;12.25;;;;;;;;111756;1243;48977;-70
2023/06/30 09:57:00;;;;;;;;;12.50;12.25;26.80;50.40;;;;;;111589;1239;48498;-67
2023/06/30 09:59:28;;;;;;;;;11.50;10.50;26.90;50.90;;;;;;111244;1240;53432;-67
2023/06/30 10:01:56;;;;;;;;;13.00;12.00;27.00;50.50;;;;;;111407;1243;44270;-67
2023/06/30 10:04:25;;;;;;;;;11.00;10.00;27.20;50.10;;;;;;111836;1242;48916;-66
2023/06/30 10:06:52;;;;;;;;;12.00;12.00;27.30;49.80;;;;;;111569;1242;49989;-65
2023/06/30 10:09:21;;;;;;;;;15.00;13.75;27.40;49.60;;;;;;111434;1240;54183;-66
2023/06/30 10:11:51;;;;;;;;;14.75;13.75;27.50;49.40;;;;;;111548;1241;44460;-73
2023/06/30 10:14:30;;;;;;;;;12.50;11.75;27.40;49.50;;;;;;111661;1242;48605;-71
2023/06/30 10:17:00;;;;;;;;;13.25;11.50;27.40;48.60;;;;;;111589;1237;49789;-66
2023/06/30 10:19:28;;;;;;;;;13.00;12.67;27.50;48.40;;;;;;111636;1237;54379;-68
2023/06/30 10:21:56;;;;;;;;;12.25;11.25;27.50;48.90;;;;;;111388;1243;45011;-62
2023/06/30 10:24:27;;;;;;;;;13.00;12.00;27.50;49.40;;;;;;111905;1243;49687;-71
2023/06/30 10:26:55;;;;;;;;;14.67;13.00;27.60;50.20;;;;;;111754;1243;48919;-72
2023/06/30 10:29:22;;;;;;;;;12.00;11.00;27.60;49.80;;;;;;111540;1241;53325;-72
2023/06/30 10:31:49;;;;;;;;;13.25;13.00;27.60;49.60;;;;;;111796;1238;44422;-71
2023/06/30 10:34:17;;;;;;;;;12.00;11.50;27.70;49.30;;;;;;111654;1239;49058;-64
2023/06/30 10:36:44;;;;;;;;;12.25;11.25;27.70;49.00;;;;;;111276;1240;49246;-63
2023/06/30 10:39:12;;;;;;;;;13.25;13.25;27.70;49.00;;;;;;111532;1242;53891;-64
2023/06/30 10:41:49;;;;;;;;;13.75;12.25;27.70;48.90;;;;;;111584;1243;45037;-67
2023/06/30 10:44:19;;;;;;;;;14.00;11.00;27.70;48.90;;;;;;111726;1237;49441;-63
2023/06/30 10:46:52;;;;;;;;;12.67;12.00;27.70;49.50;;;;;;111656;1242;49017;-65
2023/06/30 10:49:40;;;;;;;;;12.00;11.33;27.70;49.60;;;;;;111571;1242;54459;-65
2023/06/30 10:52:09;;;;;;;;;12.33;11.33;27.70;49.60;;;;;;111581;1242;44648;-63
2023/06/30 10:54:46;;;;;;;;;13.75;12.25;27.70;49.40;;;;;;111365;1242;50301;-62
2023/06/30 10:57:17;;;;;;;;;12.25;11.00;27.60;49.40;;;;;;111691;1242;49186;-65
2023/06/30 10:59:46;;;;;;;;;12.00;11.25;27.70;49.80;;;;;;111606;1237;54109;-64
2023/06/30 11:02:18;;;;;;;;;15.00;13.00;27.60;49.70;;;;;;111417;1242;44338;-62
2023/06/30 11:04:46;;;;;;;;;13.75;12.25;27.60;49.60;;;;;;111233;1237;49049;-63
2023/06/30 11:07:23;;;;;;;;;14.00;12.00;27.60;49.60;;;;;;111575;1239;49039;-63
2023/06/30 11:09:50;;;;;;;;;13.00;12.00;27.60;49.70;;;;;;111535;1243;54031;-61
2023/06/30 11:12:25;;;;;;;;;13.00;12.00;27.60;49.60;;;;;;111557;1237;44471;-62
2023/06/30 11:14:58;;;;;;;;;12.00;11.50;27.60;49.50;;;;;;111336;1247;49836;-62
2023/06/30 11:17:27;;;;;;;;;13.00;12.00;27.60;49.60;;;;;;111442;1243;50130;-67
2023/06/30 11:20:15;;;;;;;;;13.75;12.00;27.70;49.70;;;;;;111601;1242;53469;-62
2023/06/30 11:23:00;;;;;;;;;14.25;13.25;27.70;49.80;;;;;;111589;1243;44132;-65
2023/06/30 11:25:32;;;;;;;;;14.75;13.50;27.70;50.10;;;;;;111260;1239;49175;-62
2023/06/30 11:28:01;;;;;;;;;12.00;11.67;27.70;49.80;;;;;;111445;1243;49407;-65
2023/06/30 11:30:37;;;;;;;;;12.25;11.50;27.70;49.80;;;;;;111334;1243;54249;-63
2023/06/30 11:33:05;;;;;;;;;15.25;14.25;27.70;49.40;;;;;;111483;1239;44671;-64
2023/06/30 11:35:34;;;;;;;;;15.00;14.00;27.70;49.70;;;;;;111202;1240;49577;-64
2023/06/30 11:38:01;;;;;;;;;14.25;13.75;27.70;50.00;;;;;;111597;1237;49818;-62
2023/06/30 11:40:28;;;;;;;;;13.75;12.75;27.70;50.20;;;;;;111393;1241;54306;-63
2023/06/30 11:42:55;;;;;;;;;13.75;13.25;27.70;49.30;;;;;;111551;1241;44464;-62
2023/06/30 11:45:27;;;;;;;;;14.00;13.00;27.70;50.00;;;;;;111507;1238;49179;-61
2023/06/30 11:47:58;;;;;;;;;13.67;13.00;27.70;50.00;;;;;;111566;1242;49110;-62
2023/06/30 11:50:28;;;;;;;;;14.25;13.25;27.70;50.00;;;;;;111370;1243;53996;-64
2023/06/30 11:52:54;;;;;;;;;13.75;13.00;27.70;49.50;;;;;;111320;1238;45620;-64
2023/06/30 11:55:23;;;;;;;;;15.75;14.00;27.70;49.60;;;;;;111937;1242;50554;-64
2023/06/30 11:57:50;;;;;;;;;15.25;13.25;27.70;49.90;;;;;;111303;1240;49300;-62
2023/06/30 12:00:22;;;;;;;;;13.25;12.25;27.70;50.30;;;;;;111450;1238;54073;-63
2023/06/30 12:02:50;;;;;;;;;14.00;12.00;27.70;50.30;;;;;;111175;1242;45015;-63
2023/06/30 12:05:21;;;;;;;;;14.00;13.00;27.70;50.30;;;;;;111310;1242;48894;-62
2023/06/30 12:07:50;;;;;;;;;13.75;12.50;27.70;50.30;;;;;;111264;1243;48949;-63
2023/06/30 12:10:17;;;;;;;;;15.25;13.25;27.70;50.50;;;;;;111288;1238;54637;-63
2023/06/30 12:12:53;;;;;;;;;11.33;10.00;27.70;50.40;;;;;;111468;1238;44102;-64
2023/06/30 12:15:21;;;;;;;;;15.33;13.33;27.80;50.40;;;;;;111326;1242;50165;-64
2023/06/30 12:17:52;;;;;;;;;15.75;14.00;27.80;50.50;;;;;;111574;1238;49475;-63
2023/06/30 12:20:24;;;;;;;;;13.67;12.00;27.80;50.80;;;;;;111351;1240;54399;-64
2023/06/30 12:22:53;;;;;;;;;12.50;12.00;27.80;50.70;;;;;;111458;1240;44802;-64
2023/06/30 12:25:26;;;;;;;;;13.00;12.00;27.80;50.80;;;;;;111985;1237;48812;-64
2023/06/30 12:27:54;;;;;;;;;13.25;12.25;27.90;51.10;;;;;;111600;1243;50158;-62
2023/06/30 12:30:22;;;;;;;;;13.00;13.00;27.90;51.10;;;;;;111435;1237;53582;-61